Terminal Aerodrome Forecast
Issued by NWS

Home | Current Version | Previous Version | Text Only | Print | Product List | Glossary On
Versions: 1 2 3 4 5 6 7 8 9 10 11 12 13
000
FTUS43 KPAH 241120
TAFOWB
TAF
KOWB 241120Z 2412/2512 18007KT P6SM SCT015 BKN110
      TEMPO 2414/2417 BKN015
     FM241700 20009KT P6SM SCT025 BKN150
     FM250000 19005KT P6SM SCT250=

USA.gov is the U.S. government's official web portal to all federal, state and local government web resources and services.